createdAt,value
2019-01-28T00:00:03.485Z,87
2019-01-28T00:01:03.119Z,87
2019-01-28T00:02:03.111Z,87
2019-01-28T00:03:02.990Z,87
2019-01-28T00:04:02.267Z,87
2019-01-28T00:05:02.295Z,87
2019-01-28T00:06:01.791Z,87
2019-01-28T00:07:03.585Z,87
2019-01-28T00:08:03.099Z,87
2019-01-28T00:09:03.354Z,87
2019-01-28T00:10:03.627Z,87
2019-01-28T00:11:03.640Z,87
2019-01-28T00:12:02.929Z,87
2019-01-28T00:13:03.454Z,87
2019-01-28T00:14:03.060Z,87
2019-01-28T00:15:02.879Z,87
2019-01-28T00:16:02.928Z,87
2019-01-28T00:17:02.640Z,87
2019-01-28T00:18:03.845Z,87
2019-01-28T00:19:03.506Z,87
2019-01-28T00:20:02.808Z,87
2019-01-28T00:21:03.081Z,87
2019-01-28T00:22:03.134Z,87
2019-01-28T00:23:02.695Z,87
2019-01-28T00:24:03.607Z,87
2019-01-28T00:25:03.160Z,87
2019-01-28T00:26:03.315Z,87
2019-01-28T00:27:02.182Z,87
2019-01-28T00:28:02.720Z,87
2019-01-28T00:29:02.699Z,87
2019-01-28T00:30:02.992Z,87
2019-01-28T00:31:03.125Z,87
2019-01-28T00:32:03.292Z,87
2019-01-28T00:33:03.114Z,87
2019-01-28T00:34:03.344Z,86
2019-01-28T00:35:02.736Z,87
2019-01-28T00:36:03.043Z,87
2019-01-28T00:37:02.823Z,87
2019-01-28T00:38:03.012Z,86
2019-01-28T00:39:03.262Z,86
2019-01-28T00:40:02.955Z,86
2019-01-28T00:41:02.986Z,86
2019-01-28T00:42:02.925Z,86
2019-01-28T00:43:02.935Z,86
2019-01-28T00:44:03.480Z,86
2019-01-28T00:45:03.765Z,86
2019-01-28T00:46:03.166Z,86
2019-01-28T00:47:02.788Z,86
2019-01-28T00:48:02.919Z,86
2019-01-28T00:49:03.635Z,86
2019-01-28T00:50:03.368Z,86
2019-01-28T00:51:03.446Z,86
2019-01-28T00:52:03.106Z,86
2019-01-28T00:53:02.748Z,86
2019-01-28T00:54:03.476Z,86
2019-01-28T00:55:03.385Z,86
2019-01-28T00:56:02.897Z,86
2019-01-28T00:57:01.935Z,86
2019-01-28T00:58:03.448Z,86
2019-01-28T00:59:03.654Z,86
2019-01-28T01:00:03.269Z,86
2019-01-28T01:01:02.969Z,86
2019-01-28T01:02:03.071Z,86
2019-01-28T01:03:03.740Z,86
2019-01-28T01:04:03.087Z,86
2019-01-28T01:05:03.597Z,86
2019-01-28T01:06:03.005Z,86
2019-01-28T01:07:03.579Z,86
2019-01-28T01:08:02.813Z,86
2019-01-28T01:09:03.362Z,86
2019-01-28T01:10:02.656Z,86
2019-01-28T01:11:03.130Z,86
2019-01-28T01:12:03.940Z,87
2019-01-28T01:13:03.195Z,87
2019-01-28T01:14:03.695Z,87
2019-01-28T01:15:03.019Z,87
2019-01-28T01:16:03.537Z,87
2019-01-28T01:17:02.813Z,87
2019-01-28T01:18:03.107Z,87
2019-01-28T01:19:03.405Z,87
2019-01-28T01:20:02.932Z,87
2019-01-28T01:21:02.992Z,87
2019-01-28T01:22:02.850Z,87
2019-01-28T01:23:03.574Z,87
2019-01-28T01:24:03.742Z,87
2019-01-28T01:25:03.516Z,87
2019-01-28T01:26:03.464Z,87
2019-01-28T01:27:03.567Z,87
2019-01-28T01:28:03.584Z,87
2019-01-28T01:29:02.976Z,87
2019-01-28T01:30:03.631Z,87
2019-01-28T01:31:02.703Z,87
2019-01-28T01:32:02.913Z,86
2019-01-28T01:33:02.638Z,86
2019-01-28T01:34:03.042Z,86
2019-01-28T01:35:02.480Z,86
2019-01-28T01:36:03.319Z,86
2019-01-28T01:37:02.882Z,86
2019-01-28T01:38:03.295Z,86
2019-01-28T01:39:03.652Z,86
2019-01-28T01:40:03.470Z,87
2019-01-28T01:41:03.016Z,87
2019-01-28T01:42:03.241Z,87
2019-01-28T01:43:03.624Z,87
2019-01-28T01:44:03.193Z,87
2019-01-28T01:45:03.694Z,87
2019-01-28T01:46:02.967Z,87
2019-01-28T01:47:03.431Z,87
2019-01-28T01:48:03.006Z,87
2019-01-28T01:49:02.772Z,87
2019-01-28T01:50:02.847Z,87
2019-01-28T01:51:03.283Z,87
2019-01-28T01:52:03.009Z,87
2019-01-28T01:53:03.524Z,87
2019-01-28T01:54:03.610Z,87
2019-01-28T01:55:03.243Z,87
2019-01-28T01:56:03.729Z,87
2019-01-28T01:57:03.411Z,87
2019-01-28T01:58:03.586Z,87
2019-01-28T01:59:03.395Z,87
2019-01-28T02:00:03.281Z,87
2019-01-28T02:01:03.173Z,87
2019-01-28T02:02:03.468Z,87
2019-01-28T02:03:02.485Z,87
2019-01-28T02:04:03.182Z,87
2019-01-28T02:05:02.800Z,87
2019-01-28T02:06:03.444Z,87
2019-01-28T02:07:02.870Z,87
2019-01-28T02:08:03.142Z,87
2019-01-28T02:09:03.453Z,87
2019-01-28T02:10:03.296Z,87
2019-01-28T02:11:03.544Z,87
2019-01-28T02:12:03.004Z,87
2019-01-28T02:13:04.027Z,87
2019-01-28T02:14:02.889Z,87
2019-01-28T02:15:03.623Z,87
2019-01-28T02:16:02.952Z,87
2019-01-28T02:17:03.568Z,87
2019-01-28T02:18:02.715Z,87
2019-01-28T02:19:03.152Z,87
2019-01-28T02:20:03.788Z,87
2019-01-28T02:21:02.976Z,87
2019-01-28T02:22:02.759Z,87
2019-01-28T02:23:02.944Z,87
2019-01-28T02:24:03.074Z,87
2019-01-28T02:25:03.240Z,87
2019-01-28T02:26:03.559Z,87
2019-01-28T02:27:02.985Z,88
2019-01-28T02:28:03.726Z,88
2019-01-28T02:29:02.741Z,88
2019-01-28T02:30:04.067Z,88
2019-01-28T02:31:02.846Z,88
2019-01-28T02:32:03.521Z,88
2019-01-28T02:33:03.070Z,88
2019-01-28T02:34:03.263Z,88
2019-01-28T02:35:03.201Z,88
2019-01-28T02:36:03.800Z,88
2019-01-28T02:37:03.014Z,88
2019-01-28T02:38:03.399Z,88
2019-01-28T02:39:03.057Z,88
2019-01-28T02:40:03.276Z,88
2019-01-28T02:41:02.897Z,88
2019-01-28T02:42:03.151Z,88
2019-01-28T02:43:02.811Z,88
2019-01-28T02:44:03.557Z,88
2019-01-28T02:45:03.069Z,88
2019-01-28T02:46:03.289Z,88
2019-01-28T02:47:03.426Z,88
2019-01-28T02:48:03.237Z,88
2019-01-28T02:49:03.842Z,88
2019-01-28T02:50:03.234Z,88
2019-01-28T02:51:03.503Z,88
2019-01-28T02:52:03.019Z,88
2019-01-28T02:53:03.484Z,88
2019-01-28T02:54:03.002Z,88
2019-01-28T02:55:03.471Z,88
2019-01-28T02:56:02.990Z,88
2019-01-28T02:57:03.528Z,88
2019-01-28T02:58:03.406Z,88
2019-01-28T02:59:02.894Z,88
2019-01-28T03:00:02.951Z,88
2019-01-28T03:01:03.376Z,88
2019-01-28T03:02:03.036Z,88
2019-01-28T03:03:03.072Z,88
2019-01-28T03:04:03.452Z,88
2019-01-28T03:05:03.026Z,88
2019-01-28T03:06:02.703Z,88
2019-01-28T03:07:02.914Z,88
2019-01-28T03:08:02.964Z,88
2019-01-28T03:09:02.819Z,88
2019-01-28T03:10:03.550Z,88
2019-01-28T03:11:03.065Z,88
2019-01-28T03:12:02.763Z,88
2019-01-28T03:13:03.257Z,87
2019-01-28T03:14:03.119Z,87
2019-01-28T03:15:03.446Z,87
2019-01-28T03:16:03.118Z,87
2019-01-28T03:17:03.447Z,87
2019-01-28T03:18:03.194Z,87
2019-01-28T03:19:02.877Z,87
2019-01-28T03:20:03.310Z,87
2019-01-28T03:21:02.745Z,87
2019-01-28T03:22:03.279Z,87
2019-01-28T03:23:03.706Z,87
2019-01-28T03:24:03.189Z,87
2019-01-28T03:25:03.413Z,87
2019-01-28T03:26:02.612Z,87
2019-01-28T03:27:03.043Z,87
2019-01-28T03:28:02.847Z,87
2019-01-28T03:29:03.664Z,87
2019-01-28T03:30:03.406Z,87
2019-01-28T03:31:02.912Z,87
2019-01-28T03:32:03.314Z,87
2019-01-28T03:33:03.227Z,87
2019-01-28T03:34:03.583Z,87
2019-01-28T03:35:02.995Z,87
2019-01-28T03:36:03.371Z,87
2019-01-28T03:37:03.604Z,87
2019-01-28T03:38:02.770Z,87
2019-01-28T03:39:03.195Z,87
2019-01-28T03:40:03.214Z,87
2019-01-28T03:41:02.842Z,87
2019-01-28T03:42:03.601Z,87
2019-01-28T03:43:03.290Z,87
2019-01-28T03:44:03.488Z,87
2019-01-28T03:45:03.383Z,87
2019-01-28T03:46:03.381Z,87
2019-01-28T03:47:03.508Z,87
2019-01-28T03:48:03.060Z,87
2019-01-28T03:49:03.678Z,87
2019-01-28T03:50:03.222Z,87
2019-01-28T03:51:03.471Z,87
2019-01-28T03:52:03.029Z,87
2019-01-28T03:53:03.391Z,87
2019-01-28T03:54:03.370Z,87
2019-01-28T03:55:02.989Z,87
2019-01-28T03:56:03.387Z,87
2019-01-28T03:57:03.516Z,87
2019-01-28T03:58:03.239Z,87
2019-01-28T03:59:03.450Z,87
2019-01-28T04:00:02.629Z,87
2019-01-28T04:01:03.256Z,87
2019-01-28T04:02:03.369Z,87
2019-01-28T04:03:03.119Z,87
2019-01-28T04:04:03.422Z,87
2019-01-28T04:05:03.401Z,87
2019-01-28T04:06:02.803Z,87
2019-01-28T04:07:02.760Z,87
2019-01-28T04:08:03.770Z,87
2019-01-28T04:09:02.490Z,87
2019-01-28T04:10:03.040Z,87
2019-01-28T04:11:03.005Z,87
2019-01-28T04:12:02.943Z,87
2019-01-28T04:13:02.575Z,87
2019-01-28T04:14:03.489Z,87
2019-01-28T04:15:03.235Z,87
2019-01-28T04:16:02.700Z,87
2019-01-28T04:17:02.864Z,87
2019-01-28T04:18:03.651Z,87
2019-01-28T04:19:03.382Z,87
2019-01-28T04:20:02.804Z,87
2019-01-28T04:21:02.912Z,87
2019-01-28T04:22:03.172Z,87
2019-01-28T04:23:03.506Z,87
2019-01-28T04:24:03.299Z,87
2019-01-28T04:25:03.722Z,87
2019-01-28T04:26:03.537Z,87
2019-01-28T04:27:02.809Z,87
2019-01-28T04:28:03.207Z,87
2019-01-28T04:29:02.881Z,87
2019-01-28T04:30:02.738Z,87
2019-01-28T04:31:02.837Z,87
2019-01-28T04:32:02.798Z,87
2019-01-28T04:33:03.271Z,87
2019-01-28T04:34:03.484Z,86
2019-01-28T04:35:03.294Z,86
2019-01-28T04:36:03.361Z,86
2019-01-28T04:37:03.038Z,86
2019-01-28T04:38:02.425Z,87
2019-01-28T04:39:03.047Z,86
2019-01-28T04:40:02.970Z,87
2019-01-28T04:41:02.981Z,86
2019-01-28T04:42:03.412Z,86
2019-01-28T04:43:03.417Z,87
2019-01-28T04:44:02.798Z,86
2019-01-28T04:45:03.851Z,86
2019-01-28T04:46:02.836Z,86
2019-01-28T04:47:03.496Z,86
2019-01-28T04:48:03.238Z,86
2019-01-28T04:49:03.041Z,86
2019-01-28T04:50:02.798Z,86
2019-01-28T04:51:03.037Z,86
2019-01-28T04:52:03.378Z,86
2019-01-28T04:53:03.389Z,86
2019-01-28T04:54:03.297Z,86
2019-01-28T04:55:03.236Z,86
2019-01-28T04:56:03.032Z,86
2019-01-28T04:57:02.650Z,86
2019-01-28T04:58:03.911Z,86
2019-01-28T04:59:03.156Z,86
2019-01-28T05:00:02.983Z,87
2019-01-28T05:01:03.030Z,87
2019-01-28T05:02:03.007Z,87
2019-01-28T05:03:03.624Z,87
2019-01-28T05:04:03.121Z,87
2019-01-28T05:05:02.862Z,87
2019-01-28T05:06:02.589Z,87
2019-01-28T05:07:03.342Z,87
2019-01-28T05:08:03.588Z,87
2019-01-28T05:09:03.351Z,87
2019-01-28T05:10:03.787Z,87
2019-01-28T05:11:02.720Z,87
2019-01-28T05:12:03.047Z,87
2019-01-28T05:13:05.077Z,87
2019-01-28T05:14:03.211Z,87
2019-01-28T05:15:03.388Z,87
2019-01-28T05:16:02.988Z,87
2019-01-28T05:17:03.475Z,87
2019-01-28T05:18:03.681Z,87
2019-01-28T05:19:02.848Z,87
2019-01-28T05:20:02.606Z,87
2019-01-28T05:21:02.729Z,87
2019-01-28T05:22:03.086Z,87
2019-01-28T05:23:03.261Z,87
2019-01-28T05:24:03.437Z,87
2019-01-28T05:25:02.653Z,87
2019-01-28T05:26:02.975Z,87
2019-01-28T05:27:02.811Z,87
2019-01-28T05:28:03.498Z,87
2019-01-28T05:29:02.842Z,87
2019-01-28T05:30:03.003Z,87
2019-01-28T05:31:03.569Z,87
2019-01-28T05:32:02.658Z,87
2019-01-28T05:33:03.432Z,87
2019-01-28T05:34:02.662Z,88
2019-01-28T05:35:02.946Z,87
2019-01-28T05:36:03.510Z,88
2019-01-28T05:37:03.249Z,88
2019-01-28T05:38:02.625Z,88
2019-01-28T05:39:03.041Z,88
2019-01-28T05:40:03.086Z,88
2019-01-28T05:41:03.145Z,88
2019-01-28T05:42:03.333Z,88
2019-01-28T05:43:03.317Z,88
2019-01-28T05:44:03.385Z,88
2019-01-28T05:45:04.489Z,88
2019-01-28T05:47:03.799Z,88
2019-01-28T05:47:04.973Z,88
2019-01-28T05:48:09.632Z,88
2019-01-28T05:49:04.395Z,88
2019-01-28T05:50:03.700Z,88
2019-01-28T05:51:02.988Z,88
2019-01-28T05:52:03.143Z,88
2019-01-28T05:53:02.826Z,88
2019-01-28T05:54:02.907Z,88
2019-01-28T05:55:03.372Z,88
2019-01-28T05:56:03.128Z,88
2019-01-28T05:57:03.462Z,88
2019-01-28T05:58:03.387Z,88
2019-01-28T05:59:03.355Z,87
2019-01-28T06:00:03.579Z,87
2019-01-28T06:01:03.407Z,87
2019-01-28T06:02:02.984Z,87
2019-01-28T06:03:03.119Z,87
2019-01-28T06:04:03.131Z,87
2019-01-28T06:05:03.750Z,87
2019-01-28T06:06:03.523Z,87
2019-01-28T06:07:03.610Z,87
2019-01-28T06:08:03.390Z,87
2019-01-28T06:09:03.100Z,87
2019-01-28T06:10:03.627Z,87
2019-01-28T06:11:02.966Z,87
2019-01-28T06:12:03.638Z,87
2019-01-28T06:13:02.633Z,87
2019-01-28T06:14:02.898Z,87
2019-01-28T06:15:03.314Z,87
2019-01-28T06:16:03.577Z,87
2019-01-28T06:17:03.171Z,87
2019-01-28T06:18:03.475Z,87
2019-01-28T06:19:02.726Z,87
2019-01-28T06:20:03.097Z,87
2019-01-28T06:21:04.811Z,87
2019-01-28T06:22:03.381Z,87
2019-01-28T06:23:02.877Z,87
2019-01-28T06:24:03.070Z,87
2019-01-28T06:25:02.800Z,87
2019-01-28T06:26:02.900Z,87
2019-01-28T06:27:03.619Z,86
2019-01-28T06:28:02.983Z,86
2019-01-28T06:29:02.956Z,86
2019-01-28T06:30:03.071Z,86
2019-01-28T06:31:03.118Z,86
2019-01-28T06:32:03.125Z,86
2019-01-28T06:33:02.946Z,86
2019-01-28T06:34:03.407Z,86
2019-01-28T06:35:03.025Z,86
2019-01-28T06:36:02.789Z,86
2019-01-28T06:37:02.849Z,86
2019-01-28T06:38:03.564Z,86
2019-01-28T06:39:03.705Z,86
2019-01-28T06:40:02.891Z,86
2019-01-28T06:41:02.812Z,86
2019-01-28T06:42:02.777Z,86
2019-01-28T06:43:03.413Z,86
2019-01-28T06:44:02.962Z,86
2019-01-28T06:45:03.552Z,86
2019-01-28T06:46:03.631Z,86
2019-01-28T06:47:03.275Z,86
2019-01-28T06:48:03.280Z,86
2019-01-28T06:49:03.092Z,86
2019-01-28T06:50:03.515Z,86
2019-01-28T06:51:03.465Z,86
2019-01-28T06:52:02.813Z,86
2019-01-28T06:53:03.450Z,86
2019-01-28T06:54:03.056Z,86
2019-01-28T06:55:03.653Z,86
2019-01-28T06:56:03.297Z,86
2019-01-28T06:57:03.963Z,85
2019-01-28T06:58:02.677Z,85
2019-01-28T06:59:03.422Z,85
2019-01-28T07:00:03.717Z,85
2019-01-28T07:01:02.876Z,85
2019-01-28T07:02:02.672Z,85
2019-01-28T07:03:03.197Z,85
2019-01-28T07:04:02.952Z,85
2019-01-28T07:05:03.552Z,85
2019-01-28T07:06:03.671Z,85
2019-01-28T07:07:03.078Z,85
2019-01-28T07:08:03.272Z,85
2019-01-28T07:09:03.065Z,85
2019-01-28T07:10:03.281Z,85
2019-01-28T07:11:03.430Z,85
2019-01-28T07:12:03.374Z,85
2019-01-28T07:13:03.141Z,85
2019-01-28T07:14:03.340Z,85
2019-01-28T07:15:03.053Z,85
2019-01-28T07:16:03.371Z,85
2019-01-28T07:17:03.518Z,85
2019-01-28T07:18:03.182Z,85
2019-01-28T07:19:03.219Z,85
2019-01-28T07:20:02.775Z,85
2019-01-28T07:21:02.448Z,85
2019-01-28T07:22:03.205Z,85
2019-01-28T07:23:03.281Z,85
2019-01-28T07:24:02.396Z,85
2019-01-28T07:25:03.457Z,85
2019-01-28T07:26:03.182Z,85
2019-01-28T07:27:03.452Z,85
2019-01-28T07:28:03.090Z,85
2019-01-28T07:29:03.402Z,85
2019-01-28T07:30:03.497Z,85
2019-01-28T07:31:02.929Z,85
2019-01-28T07:32:03.375Z,85
2019-01-28T07:33:03.230Z,85
2019-01-28T07:34:02.660Z,85
2019-01-28T07:35:03.591Z,85
2019-01-28T07:36:02.832Z,85
2019-01-28T07:37:03.665Z,85
2019-01-28T07:38:03.756Z,85
2019-01-28T07:39:03.587Z,85
2019-01-28T07:40:03.505Z,85
2019-01-28T07:41:03.455Z,85
2019-01-28T07:42:03.266Z,85
2019-01-28T07:43:03.178Z,85
2019-01-28T07:44:02.986Z,85
2019-01-28T07:45:03.471Z,85
2019-01-28T07:46:03.665Z,85
2019-01-28T07:47:02.910Z,85
2019-01-28T07:48:03.479Z,85
2019-01-28T07:49:03.292Z,85
2019-01-28T07:50:03.287Z,85
2019-01-28T07:51:03.301Z,85
2019-01-28T07:52:03.602Z,85
2019-01-28T07:53:02.977Z,85
2019-01-28T07:54:03.561Z,85
2019-01-28T07:55:03.654Z,85
2019-01-28T07:56:03.226Z,85
2019-01-28T07:57:03.093Z,85
2019-01-28T07:58:03.101Z,85
2019-01-28T07:59:03.570Z,85
2019-01-28T08:00:03.474Z,84
2019-01-28T08:01:03.456Z,84
2019-01-28T08:02:03.357Z,84
2019-01-28T08:03:03.410Z,84
2019-01-28T08:04:03.390Z,84
2019-01-28T08:05:03.296Z,84
2019-01-28T08:06:03.340Z,84
2019-01-28T08:07:03.707Z,84
2019-01-28T08:08:02.671Z,84
2019-01-28T08:09:03.500Z,84
2019-01-28T08:10:03.821Z,84
2019-01-28T08:11:02.676Z,84
2019-01-28T08:12:01.757Z,84
2019-01-28T08:13:02.671Z,84
2019-01-28T08:14:02.844Z,84
2019-01-28T08:15:02.925Z,84
2019-01-28T08:16:03.199Z,84
2019-01-28T08:17:02.884Z,84
2019-01-28T08:18:11.124Z,84
2019-01-28T08:19:02.966Z,84
2019-01-28T08:20:02.960Z,84
2019-01-28T08:21:03.467Z,84
2019-01-28T08:22:02.492Z,84
2019-01-28T08:23:03.386Z,84
2019-01-28T08:24:03.697Z,83
2019-01-28T08:25:03.180Z,83
2019-01-28T08:26:03.189Z,83
2019-01-28T08:27:02.987Z,83
2019-01-28T08:28:02.925Z,83
2019-01-28T08:29:03.530Z,83
2019-01-28T08:30:03.050Z,83
2019-01-28T08:31:02.593Z,83
2019-01-28T08:32:03.120Z,83
2019-01-28T08:33:03.232Z,83
2019-01-28T08:34:03.161Z,83
2019-01-28T08:35:03.017Z,83
2019-01-28T08:36:02.720Z,83
2019-01-28T08:37:03.208Z,83
2019-01-28T08:38:03.294Z,83
2019-01-28T08:39:02.826Z,83
2019-01-28T08:40:03.102Z,83
2019-01-28T08:41:02.963Z,83
2019-01-28T08:42:03.045Z,83
2019-01-28T08:43:03.042Z,83
2019-01-28T08:44:03.485Z,83
2019-01-28T08:45:02.765Z,83
2019-01-28T08:46:02.969Z,83
2019-01-28T08:47:03.097Z,83
2019-01-28T08:48:02.924Z,83
2019-01-28T08:49:03.062Z,83
2019-01-28T08:50:03.021Z,83
2019-01-28T08:51:02.814Z,83
2019-01-28T08:52:02.851Z,83
2019-01-28T08:53:03.034Z,83
2019-01-28T08:54:03.016Z,82
2019-01-28T08:55:03.300Z,82
2019-01-28T08:56:03.313Z,82
2019-01-28T08:57:03.387Z,82
2019-01-28T08:58:03.183Z,82
2019-01-28T08:59:02.762Z,82
2019-01-28T09:00:02.997Z,82
2019-01-28T09:01:03.031Z,82
2019-01-28T09:02:04.173Z,82
2019-01-28T09:03:03.159Z,82
2019-01-28T09:04:03.195Z,82
2019-01-28T09:05:02.607Z,82
2019-01-28T09:06:03.567Z,82
2019-01-28T09:07:02.959Z,82
2019-01-28T09:08:03.166Z,82
2019-01-28T09:09:03.370Z,82
2019-01-28T09:10:03.359Z,82
2019-01-28T09:11:03.306Z,82
2019-01-28T09:12:02.791Z,82
2019-01-28T09:13:03.427Z,82
2019-01-28T09:14:03.032Z,82
2019-01-28T09:15:03.737Z,82
2019-01-28T09:16:03.556Z,82
2019-01-28T09:17:03.150Z,82
2019-01-28T09:18:03.449Z,82
2019-01-28T09:19:03.148Z,82
2019-01-28T09:20:02.902Z,82
2019-01-28T09:21:03.017Z,82
2019-01-28T09:22:03.090Z,81
2019-01-28T09:23:02.706Z,81
2019-01-28T09:24:03.015Z,81
2019-01-28T09:25:03.088Z,81
2019-01-28T09:26:03.101Z,81
2019-01-28T09:27:03.018Z,81
2019-01-28T09:28:03.404Z,81
2019-01-28T09:29:03.379Z,81
2019-01-28T09:30:03.215Z,81
2019-01-28T09:31:03.503Z,81
2019-01-28T09:32:03.107Z,81
2019-01-28T09:33:03.501Z,81
2019-01-28T09:34:02.910Z,81
2019-01-28T09:35:03.223Z,81
2019-01-28T09:36:02.983Z,81
2019-01-28T09:37:03.331Z,81
2019-01-28T09:38:03.316Z,81
2019-01-28T09:39:03.290Z,81
2019-01-28T09:40:04.204Z,81
2019-01-28T09:41:02.443Z,80
2019-01-28T09:42:03.440Z,80
2019-01-28T09:43:03.647Z,80
2019-01-28T09:44:02.886Z,80
2019-01-28T09:45:03.192Z,80
2019-01-28T09:46:03.052Z,80
2019-01-28T09:47:03.681Z,80
2019-01-28T09:48:03.057Z,80
2019-01-28T09:49:03.581Z,80
2019-01-28T09:50:03.168Z,80
2019-01-28T09:51:02.961Z,80
2019-01-28T09:52:03.408Z,80
2019-01-28T09:53:03.652Z,80
2019-01-28T09:54:02.735Z,80
2019-01-28T09:55:03.420Z,80
2019-01-28T09:56:03.230Z,80
2019-01-28T09:57:03.368Z,80
2019-01-28T09:58:02.688Z,80
2019-01-28T09:59:03.286Z,80
2019-01-28T10:00:03.375Z,80
2019-01-28T10:01:03.067Z,79
2019-01-28T10:02:03.501Z,79
2019-01-28T10:03:03.240Z,79
2019-01-28T10:04:03.381Z,79
2019-01-28T10:05:03.367Z,79
2019-01-28T10:06:02.919Z,79
2019-01-28T10:07:03.730Z,79
2019-01-28T10:08:03.720Z,78
2019-01-28T10:09:03.709Z,78
2019-01-28T10:10:03.522Z,78
2019-01-28T10:11:03.028Z,78
2019-01-28T10:12:03.150Z,78
2019-01-28T10:13:02.697Z,78
2019-01-28T10:14:02.856Z,78
2019-01-28T10:15:03.630Z,78
2019-01-28T10:16:02.749Z,78
2019-01-28T10:17:02.966Z,78
2019-01-28T10:18:02.866Z,78
2019-01-28T10:19:03.219Z,78
2019-01-28T10:20:03.423Z,78
2019-01-28T10:21:02.688Z,78
2019-01-28T10:22:02.972Z,77
2019-01-28T10:23:03.323Z,77
2019-01-28T10:24:02.791Z,77
2019-01-28T10:25:03.575Z,77
2019-01-28T10:26:03.396Z,77
2019-01-28T10:27:02.644Z,77
2019-01-28T10:28:03.527Z,77
2019-01-28T10:29:03.608Z,77
2019-01-28T10:30:03.742Z,77
2019-01-28T10:31:02.491Z,76
2019-01-28T10:32:03.021Z,76
2019-01-28T10:33:03.087Z,76
2019-01-28T10:34:03.401Z,76
2019-01-28T10:35:03.883Z,76
2019-01-28T10:36:02.935Z,76
2019-01-28T10:37:04.332Z,75
2019-01-28T10:38:05.366Z,75
2019-01-28T10:39:03.504Z,75
2019-01-28T10:40:02.986Z,75
2019-01-28T10:41:03.655Z,75
2019-01-28T10:42:03.705Z,75
2019-01-28T10:43:02.686Z,75
2019-01-28T10:44:10.551Z,75
2019-01-28T10:45:02.949Z,75
2019-01-28T10:46:02.815Z,75
2019-01-28T10:47:03.216Z,74
2019-01-28T10:48:03.223Z,74
2019-01-28T10:49:02.764Z,74
2019-01-28T10:50:03.117Z,73
2019-01-28T10:51:02.660Z,74
2019-01-28T10:52:03.597Z,74
2019-01-28T10:53:03.553Z,74
2019-01-28T10:54:03.557Z,73
2019-01-28T10:55:02.817Z,74
2019-01-28T10:56:03.252Z,74
2019-01-28T10:57:03.253Z,74
2019-01-28T10:58:03.411Z,73
2019-01-28T10:59:02.934Z,73
2019-01-28T11:00:03.363Z,74
2019-01-28T11:01:03.330Z,74
2019-01-28T11:02:02.982Z,73
2019-01-28T11:03:02.785Z,74
2019-01-28T11:04:02.895Z,74
2019-01-28T11:05:03.681Z,73
2019-01-28T11:06:03.127Z,73
2019-01-28T11:07:03.156Z,73
2019-01-28T11:08:03.506Z,73
2019-01-28T11:09:03.453Z,73
2019-01-28T11:10:03.458Z,74
2019-01-28T11:11:03.762Z,73
2019-01-28T11:12:03.352Z,73
2019-01-28T11:13:02.985Z,74
2019-01-28T11:14:03.027Z,74
2019-01-28T11:15:03.205Z,74
2019-01-28T11:16:03.206Z,74
2019-01-28T11:17:02.720Z,74
2019-01-28T11:18:02.557Z,74
2019-01-28T11:19:03.599Z,74
2019-01-28T11:20:03.760Z,74
2019-01-28T11:21:02.989Z,74
2019-01-28T11:22:03.861Z,74
2019-01-28T11:23:02.746Z,73
2019-01-28T11:24:03.846Z,73
2019-01-28T11:25:03.619Z,74
2019-01-28T11:26:03.307Z,74
2019-01-28T11:27:03.283Z,74
2019-01-28T11:28:03.242Z,74
2019-01-28T11:29:02.685Z,73
2019-01-28T11:30:02.096Z,73
2019-01-28T11:31:02.830Z,74
2019-01-28T11:32:03.530Z,74
2019-01-28T11:33:03.307Z,74
2019-01-28T11:34:03.016Z,74
2019-01-28T11:35:03.053Z,74
2019-01-28T11:36:05.896Z,73
2019-01-28T11:37:03.855Z,73
2019-01-28T11:38:03.298Z,73
2019-01-28T11:39:03.273Z,73
2019-01-28T11:40:03.323Z,74
2019-01-28T11:41:03.695Z,73
2019-01-28T11:42:03.618Z,73
2019-01-28T11:43:03.645Z,73
2019-01-28T11:44:02.982Z,73
2019-01-28T11:45:02.835Z,73
2019-01-28T11:46:03.252Z,73
2019-01-28T11:47:02.849Z,73
2019-01-28T11:48:02.944Z,73
2019-01-28T11:49:06.520Z,73
2019-01-28T11:50:03.877Z,73
2019-01-28T11:51:03.059Z,73
2019-01-28T11:52:02.922Z,73
2019-01-28T11:53:03.783Z,74
2019-01-28T11:54:03.562Z,74
2019-01-28T11:55:03.393Z,73
2019-01-28T11:56:03.026Z,74
2019-01-28T11:57:03.426Z,74
2019-01-28T11:58:02.708Z,74
2019-01-28T11:59:02.427Z,74
2019-01-28T12:00:03.423Z,74
2019-01-28T12:01:02.821Z,74
2019-01-28T12:02:02.998Z,74
2019-01-28T12:03:03.086Z,74
2019-01-28T12:04:02.961Z,74
2019-01-28T12:05:03.769Z,73
2019-01-28T12:06:03.414Z,73
2019-01-28T12:07:03.137Z,73
2019-01-28T12:08:02.777Z,73
2019-01-28T12:09:03.491Z,73
2019-01-28T12:10:03.758Z,73
2019-01-28T12:11:02.929Z,73
2019-01-28T12:12:02.998Z,73
2019-01-28T12:13:03.466Z,73
2019-01-28T12:14:03.059Z,73
2019-01-28T12:15:02.957Z,73
2019-01-28T12:16:03.567Z,73
2019-01-28T12:17:03.391Z,73
2019-01-28T12:18:03.000Z,73
2019-01-28T12:19:03.343Z,73
2019-01-28T12:20:03.675Z,73
2019-01-28T12:21:03.106Z,73
2019-01-28T12:22:02.870Z,73
2019-01-28T12:23:03.021Z,74
2019-01-28T12:24:02.852Z,74
2019-01-28T12:25:03.431Z,74
2019-01-28T12:26:03.646Z,74
2019-01-28T12:27:03.652Z,74
2019-01-28T12:28:02.915Z,74
2019-01-28T12:29:03.791Z,74
2019-01-28T12:30:03.132Z,73
2019-01-28T12:31:03.567Z,73
2019-01-28T12:32:03.020Z,73
2019-01-28T12:33:03.398Z,73
2019-01-28T12:34:03.054Z,73
2019-01-28T12:35:03.048Z,73
2019-01-28T12:36:03.033Z,73
2019-01-28T12:37:02.783Z,72
2019-01-28T12:38:03.004Z,72
2019-01-28T12:39:03.467Z,71
2019-01-28T12:40:02.757Z,71
2019-01-28T12:41:03.427Z,71
2019-01-28T12:42:03.027Z,71
2019-01-28T12:43:03.285Z,71
2019-01-28T12:44:03.346Z,71
2019-01-28T12:45:03.416Z,71
2019-01-28T12:46:03.722Z,71
2019-01-28T12:47:03.352Z,71
2019-01-28T12:48:03.282Z,71
2019-01-28T12:49:03.630Z,71
2019-01-28T12:50:02.958Z,71
2019-01-28T12:51:02.942Z,71
2019-01-28T12:52:03.097Z,71
2019-01-28T12:53:03.699Z,71
2019-01-28T12:54:02.954Z,71
2019-01-28T12:55:02.763Z,71
2019-01-28T12:56:03.215Z,71
2019-01-28T12:57:03.067Z,71
2019-01-28T12:58:03.476Z,71
2019-01-28T12:59:09.400Z,71
2019-01-28T13:00:03.361Z,71
2019-01-28T13:01:03.361Z,71
2019-01-28T13:02:02.737Z,71
2019-01-28T13:03:03.197Z,71
2019-01-28T13:04:03.352Z,71
2019-01-28T13:05:03.135Z,71
2019-01-28T13:06:03.147Z,71
2019-01-28T13:07:02.906Z,71
2019-01-28T13:08:02.867Z,71
2019-01-28T13:09:03.828Z,71
2019-01-28T13:10:02.732Z,71
2019-01-28T13:11:02.888Z,71
2019-01-28T13:12:03.232Z,71
2019-01-28T13:13:03.248Z,71
2019-01-28T13:14:03.161Z,71
2019-01-28T13:15:03.716Z,71
2019-01-28T13:16:02.886Z,70
2019-01-28T13:17:03.494Z,70
2019-01-28T13:18:03.605Z,70
2019-01-28T13:19:03.237Z,70
2019-01-28T13:20:03.650Z,70
2019-01-28T13:21:02.724Z,70
2019-01-28T13:22:03.134Z,71
2019-01-28T13:23:03.435Z,70
2019-01-28T13:24:02.574Z,70
2019-01-28T13:25:03.279Z,70
2019-01-28T13:26:02.830Z,70
2019-01-28T13:27:02.967Z,69
2019-01-28T13:28:02.860Z,69
2019-01-28T13:29:02.747Z,69
2019-01-28T13:30:03.167Z,69
2019-01-28T13:31:03.149Z,69
2019-01-28T13:32:02.956Z,69
2019-01-28T13:33:02.906Z,70
2019-01-28T13:34:02.869Z,70
2019-01-28T13:35:03.669Z,70
2019-01-28T13:36:03.360Z,70
2019-01-28T13:37:03.196Z,69
2019-01-28T13:38:03.553Z,69
2019-01-28T13:39:03.312Z,69
2019-01-28T13:40:03.069Z,69
2019-01-28T13:41:03.236Z,68
2019-01-28T13:42:02.713Z,69
2019-01-28T13:43:03.473Z,69
2019-01-28T13:44:02.409Z,69
2019-01-28T13:45:02.955Z,69
2019-01-28T13:46:03.532Z,69
2019-01-28T13:47:03.205Z,69
2019-01-28T13:48:02.545Z,69
2019-01-28T13:49:02.877Z,69
2019-01-28T13:50:03.686Z,69
2019-01-28T13:51:02.978Z,69
2019-01-28T13:52:03.361Z,69
2019-01-28T13:53:03.463Z,69
2019-01-28T13:54:03.535Z,69
2019-01-28T13:55:03.235Z,69
2019-01-28T13:56:02.920Z,67
2019-01-28T13:57:03.631Z,68
2019-01-28T13:58:03.692Z,68
2019-01-28T13:59:03.065Z,67
2019-01-28T14:00:03.649Z,67
2019-01-28T14:01:03.640Z,67
2019-01-28T14:02:03.583Z,67
2019-01-28T14:03:03.171Z,67
2019-01-28T14:04:02.970Z,67
2019-01-28T14:05:03.810Z,68
2019-01-28T14:06:03.528Z,68
2019-01-28T14:07:03.316Z,68
2019-01-28T14:08:03.431Z,68
2019-01-28T14:09:03.013Z,68
2019-01-28T14:10:03.252Z,68
2019-01-28T14:11:03.255Z,68
2019-01-28T14:12:03.775Z,67
2019-01-28T14:13:03.021Z,68
2019-01-28T14:14:02.734Z,68
2019-01-28T14:15:03.655Z,68